TW-0003 weather

CLOSED Highway Strip 58 60
Johngli City, Taoyuan County, Taiwan

Public forecast

Using degrees Celsius for public forecast. Weather courtesy of forecast.io.

METAR (pilot weather report)

Closest report is Taiwan Taoyuan International Airport, 6.1 nm (11.3 km) N. Retrieved 2019/07/23 03:30 UTC (28 minutes ago):

RCTP 230330Z 28012KT 9999 FEW020 SCT200 33/24 Q1006 NOSIG RMK A2973

TAF (pilot weather forecast)

Forecast is more than 12 hours old.

Closest forecast is Taiwan Taoyuan International Airport, 6.1 nm (11.3 km) N. Retrieved 2019/07/22 00:00 UTC (1 day ago):

TAF RCTP 222300Z 2300/2406 27005KT 9999 FEW015 BKN032 TEMPO 2300/2303 18005KT TEMPO 2307/2312 13008KT FEW010 FEW015TCU BKN018 BKN040 BECMG 2312/2314 20010KT TEMPO 2400/2406 30008KT